sensor_id;sensor_type;location;lat;lon;timestamp;temperature;humidity
2579;DHT22;1299;48.282;14.398;2023-07-29T00:02:04;20.70;99.90
2579;DHT22;1299;48.282;14.398;2023-07-29T00:04:31;20.70;99.90
2579;DHT22;1299;48.282;14.398;2023-07-29T00:06:58;20.60;99.90
2579;DHT22;1299;48.282;14.398;2023-07-29T00:09:25;20.50;99.90
2579;DHT22;1299;48.282;14.398;2023-07-29T00:11:52;20.60;99.90
2579;DHT22;1299;48.282;14.398;2023-07-29T00:14:20;20.50;99.90
2579;DHT22;1299;48.282;14.398;2023-07-29T00:16:47;20.50;99.90
2579;DHT22;1299;48.282;14.398;2023-07-29T00:19:14;20.50;99.90
2579;DHT22;1299;48.282;14.398;2023-07-29T00:21:40;20.50;99.90
2579;DHT22;1299;48.282;14.398;2023-07-29T00:24:07;20.50;99.90
2579;DHT22;1299;48.282;14.398;2023-07-29T00:26:34;20.50;99.90
2579;DHT22;1299;48.282;14.398;2023-07-29T00:29:01;20.60;99.90
2579;DHT22;1299;48.282;14.398;2023-07-29T00:31:29;20.50;99.90
2579;DHT22;1299;48.282;14.398;2023-07-29T00:33:56;20.40;99.90
2579;DHT22;1299;48.282;14.398;2023-07-29T00:36:23;19.90;99.90
2579;DHT22;1299;48.282;14.398;2023-07-29T00:38:50;19.90;99.90
2579;DHT22;1299;48.282;14.398;2023-07-29T00:41:19;20.00;99.90
2579;DHT22;1299;48.282;14.398;2023-07-29T00:43:47;20.00;99.90
2579;DHT22;1299;48.282;14.398;2023-07-29T00:46:14;19.90;99.90
2579;DHT22;1299;48.282;14.398;2023-07-29T00:48:43;19.90;99.90
2579;DHT22;1299;48.282;14.398;2023-07-29T00:51:10;19.90;99.90
2579;DHT22;1299;48.282;14.398;2023-07-29T00:53:37;20.00;99.90
2579;DHT22;1299;48.282;14.398;2023-07-29T00:56:04;20.10;99.90
2579;DHT22;1299;48.282;14.398;2023-07-29T00:58:31;20.20;99.90
2579;DHT22;1299;48.282;14.398;2023-07-29T01:00:58;20.20;99.90
2579;DHT22;1299;48.282;14.398;2023-07-29T01:03:25;20.30;99.90
2579;DHT22;1299;48.282;14.398;2023-07-29T01:06:05;20.30;99.90
2579;DHT22;1299;48.282;14.398;2023-07-29T01:08:41;20.30;99.90
2579;DHT22;1299;48.282;14.398;2023-07-29T01:11:23;20.30;99.90
2579;DHT22;1299;48.282;14.398;2023-07-29T01:14:00;20.10;99.90
2579;DHT22;1299;48.282;14.398;2023-07-29T01:16:32;20.30;99.90
2579;DHT22;1299;48.282;14.398;2023-07-29T01:19:05;20.30;99.90
2579;DHT22;1299;48.282;14.398;2023-07-29T01:21:35;20.30;99.90
2579;DHT22;1299;48.282;14.398;2023-07-29T01:24:04;20.10;99.90
2579;DHT22;1299;48.282;14.398;2023-07-29T01:26:31;20.00;99.90
2579;DHT22;1299;48.282;14.398;2023-07-29T01:28:58;20.00;99.90
2579;DHT22;1299;48.282;14.398;2023-07-29T01:31:30;19.90;99.90
2579;DHT22;1299;48.282;14.398;2023-07-29T01:34:11;19.90;99.90
2579;DHT22;1299;48.282;14.398;2023-07-29T01:36:42;19.70;99.90
2579;DHT22;1299;48.282;14.398;2023-07-29T01:39:11;19.80;99.90
2579;DHT22;1299;48.282;14.398;2023-07-29T01:41:39;19.90;99.90
2579;DHT22;1299;48.282;14.398;2023-07-29T01:44:07;19.80;99.90
2579;DHT22;1299;48.282;14.398;2023-07-29T01:46:34;19.60;99.90
2579;DHT22;1299;48.282;14.398;2023-07-29T01:49:01;19.60;99.90
2579;DHT22;1299;48.282;14.398;2023-07-29T01:51:28;19.40;99.90
2579;DHT22;1299;48.282;14.398;2023-07-29T01:53:55;19.70;99.90
2579;DHT22;1299;48.282;14.398;2023-07-29T01:56:23;19.50;99.90
2579;DHT22;1299;48.282;14.398;2023-07-29T01:58:50;19.50;99.90
2579;DHT22;1299;48.282;14.398;2023-07-29T02:01:17;19.70;99.90
2579;DHT22;1299;48.282;14.398;2023-07-29T02:03:44;19.40;99.90
2579;DHT22;1299;48.282;14.398;2023-07-29T02:06:11;19.70;99.90
2579;DHT22;1299;48.282;14.398;2023-07-29T02:08:38;19.80;99.90
2579;DHT22;1299;48.282;14.398;2023-07-29T02:11:06;19.80;99.90
2579;DHT22;1299;48.282;14.398;2023-07-29T02:13:34;19.80;99.90
2579;DHT22;1299;48.282;14.398;2023-07-29T02:16:01;19.80;99.90
2579;DHT22;1299;48.282;14.398;2023-07-29T02:18:28;19.90;99.90
2579;DHT22;1299;48.282;14.398;2023-07-29T02:20:55;19.90;99.90
2579;DHT22;1299;48.282;14.398;2023-07-29T02:23:22;19.60;99.90
2579;DHT22;1299;48.282;14.398;2023-07-29T02:25:50;19.70;99.90
2579;DHT22;1299;48.282;14.398;2023-07-29T02:28:17;19.50;99.90
2579;DHT22;1299;48.282;14.398;2023-07-29T02:30:45;19.60;99.90
2579;DHT22;1299;48.282;14.398;2023-07-29T02:33:12;19.40;99.90
2579;DHT22;1299;48.282;14.398;2023-07-29T02:35:39;19.50;99.90
2579;DHT22;1299;48.282;14.398;2023-07-29T02:38:06;19.50;99.90
2579;DHT22;1299;48.282;14.398;2023-07-29T02:40:32;19.50;99.90
2579;DHT22;1299;48.282;14.398;2023-07-29T02:42:59;19.40;99.90
2579;DHT22;1299;48.282;14.398;2023-07-29T02:45:26;19.40;99.90
2579;DHT22;1299;48.282;14.398;2023-07-29T02:47:54;19.40;99.90
2579;DHT22;1299;48.282;14.398;2023-07-29T02:50:21;19.40;99.90
2579;DHT22;1299;48.282;14.398;2023-07-29T02:52:48;19.40;99.90
2579;DHT22;1299;48.282;14.398;2023-07-29T02:55:15;19.40;99.90
2579;DHT22;1299;48.282;14.398;2023-07-29T02:57:42;19.30;99.90
2579;DHT22;1299;48.282;14.398;2023-07-29T03:00:10;19.20;99.90
2579;DHT22;1299;48.282;14.398;2023-07-29T03:02:37;19.10;99.90
2579;DHT22;1299;48.282;14.398;2023-07-29T03:05:06;19.10;99.90
2579;DHT22;1299;48.282;14.398;2023-07-29T03:07:33;18.90;99.90
2579;DHT22;1299;48.282;14.398;2023-07-29T03:10:00;18.90;99.90
2579;DHT22;1299;48.282;14.398;2023-07-29T03:12:27;18.90;99.90
2579;DHT22;1299;48.282;14.398;2023-07-29T03:14:54;18.90;99.90
2579;DHT22;1299;48.282;14.398;2023-07-29T03:17:21;18.90;99.90
2579;DHT22;1299;48.282;14.398;2023-07-29T03:19:48;18.90;99.90
2579;DHT22;1299;48.282;14.398;2023-07-29T03:22:17;18.80;99.90
2579;DHT22;1299;48.282;14.398;2023-07-29T03:24:43;18.80;99.90
2579;DHT22;1299;48.282;14.398;2023-07-29T03:27:10;18.70;99.90
2579;DHT22;1299;48.282;14.398;2023-07-29T03:29:37;18.70;99.90
2579;DHT22;1299;48.282;14.398;2023-07-29T03:32:05;18.70;99.90
2579;DHT22;1299;48.282;14.398;2023-07-29T03:34:32;18.60;99.90
2579;DHT22;1299;48.282;14.398;2023-07-29T03:36:59;18.40;99.90
2579;DHT22;1299;48.282;14.398;2023-07-29T03:39:27;18.40;99.90
2579;DHT22;1299;48.282;14.398;2023-07-29T03:41:54;18.50;99.90
2579;DHT22;1299;48.282;14.398;2023-07-29T03:44:21;18.60;99.90
2579;DHT22;1299;48.282;14.398;2023-07-29T03:46:48;18.60;99.90
2579;DHT22;1299;48.282;14.398;2023-07-29T03:49:15;18.60;99.90
2579;DHT22;1299;48.282;14.398;2023-07-29T03:51:42;18.60;99.90
2579;DHT22;1299;48.282;14.398;2023-07-29T03:54:09;18.60;99.90
2579;DHT22;1299;48.282;14.398;2023-07-29T03:56:37;18.50;99.90
2579;DHT22;1299;48.282;14.398;2023-07-29T03:59:05;17.90;99.90
2579;DHT22;1299;48.282;14.398;2023-07-29T04:01:32;18.10;99.90
2579;DHT22;1299;48.282;14.398;2023-07-29T04:03:59;18.20;99.90
2579;DHT22;1299;48.282;14.398;2023-07-29T04:06:26;17.90;99.90
2579;DHT22;1299;48.282;14.398;2023-07-29T04:08:53;18.10;99.90
2579;DHT22;1299;48.282;14.398;2023-07-29T04:11:20;18.10;99.90
2579;DHT22;1299;48.282;14.398;2023-07-29T04:13:48;18.30;99.90
2579;DHT22;1299;48.282;14.398;2023-07-29T04:16:15;18.30;99.90
2579;DHT22;1299;48.282;14.398;2023-07-29T04:18:43;18.40;99.90
2579;DHT22;1299;48.282;14.398;2023-07-29T04:21:10;18.40;99.90
2579;DHT22;1299;48.282;14.398;2023-07-29T04:23:38;18.50;99.90
2579;DHT22;1299;48.282;14.398;2023-07-29T04:26:05;18.60;99.90
2579;DHT22;1299;48.282;14.398;2023-07-29T04:28:32;18.70;99.90
2579;DHT22;1299;48.282;14.398;2023-07-29T04:31:01;18.80;99.90
2579;DHT22;1299;48.282;14.398;2023-07-29T04:33:29;18.90;99.90
2579;DHT22;1299;48.282;14.398;2023-07-29T04:35:56;18.90;99.90
2579;DHT22;1299;48.282;14.398;2023-07-29T04:38:30;19.00;99.90
2579;DHT22;1299;48.282;14.398;2023-07-29T04:40:57;18.90;99.90
2579;DHT22;1299;48.282;14.398;2023-07-29T04:43:27;18.90;99.90
2579;DHT22;1299;48.282;14.398;2023-07-29T04:45:54;19.10;99.90
2579;DHT22;1299;48.282;14.398;2023-07-29T04:48:22;19.20;99.90
2579;DHT22;1299;48.282;14.398;2023-07-29T04:50:49;19.20;99.90
2579;DHT22;1299;48.282;14.398;2023-07-29T04:53:16;19.30;99.90
2579;DHT22;1299;48.282;14.398;2023-07-29T04:55:43;19.30;99.90
2579;DHT22;1299;48.282;14.398;2023-07-29T04:58:10;19.20;99.90
2579;DHT22;1299;48.282;14.398;2023-07-29T05:00:37;19.30;99.90
2579;DHT22;1299;48.282;14.398;2023-07-29T05:03:04;19.40;99.90
2579;DHT22;1299;48.282;14.398;2023-07-29T05:05:33;19.50;99.90
2579;DHT22;1299;48.282;14.398;2023-07-29T05:08:00;19.50;99.90
2579;DHT22;1299;48.282;14.398;2023-07-29T05:10:26;19.60;99.90
2579;DHT22;1299;48.282;14.398;2023-07-29T05:12:53;19.60;99.90
2579;DHT22;1299;48.282;14.398;2023-07-29T05:15:20;19.70;99.90
2579;DHT22;1299;48.282;14.398;2023-07-29T05:17:47;19.80;99.90
2579;DHT22;1299;48.282;14.398;2023-07-29T05:20:14;19.80;99.90
2579;DHT22;1299;48.282;14.398;2023-07-29T05:22:42;20.00;99.90
2579;DHT22;1299;48.282;14.398;2023-07-29T05:25:09;19.60;99.90
2579;DHT22;1299;48.282;14.398;2023-07-29T05:27:36;19.70;99.90
2579;DHT22;1299;48.282;14.398;2023-07-29T05:30:03;19.80;99.90
2579;DHT22;1299;48.282;14.398;2023-07-29T05:32:30;20.00;99.90
2579;DHT22;1299;48.282;14.398;2023-07-29T05:34:57;19.80;99.90
2579;DHT22;1299;48.282;14.398;2023-07-29T05:37:24;20.10;99.90
2579;DHT22;1299;48.282;14.398;2023-07-29T05:39:52;20.20;99.90
2579;DHT22;1299;48.282;14.398;2023-07-29T05:42:19;20.30;99.90
2579;DHT22;1299;48.282;14.398;2023-07-29T05:44:48;19.90;99.90
2579;DHT22;1299;48.282;14.398;2023-07-29T05:47:14;19.60;99.90
2579;DHT22;1299;48.282;14.398;2023-07-29T05:49:44;19.50;99.90
2579;DHT22;1299;48.282;14.398;2023-07-29T05:52:11;19.80;99.90
2579;DHT22;1299;48.282;14.398;2023-07-29T05:54:38;19.70;99.90
2579;DHT22;1299;48.282;14.398;2023-07-29T05:57:06;19.50;99.90
2579;DHT22;1299;48.282;14.398;2023-07-29T05:59:33;20.00;99.90
2579;DHT22;1299;48.282;14.398;2023-07-29T06:02:00;20.40;99.90
2579;DHT22;1299;48.282;14.398;2023-07-29T06:04:27;21.10;99.90
2579;DHT22;1299;48.282;14.398;2023-07-29T06:06:54;21.60;99.90
2579;DHT22;1299;48.282;14.398;2023-07-29T06:09:21;21.60;99.90
2579;DHT22;1299;48.282;14.398;2023-07-29T06:11:48;21.80;99.90
2579;DHT22;1299;48.282;14.398;2023-07-29T06:14:16;22.50;99.90
2579;DHT22;1299;48.282;14.398;2023-07-29T06:16:42;23.70;99.90
2579;DHT22;1299;48.282;14.398;2023-07-29T06:19:09;25.10;99.90
2579;DHT22;1299;48.282;14.398;2023-07-29T06:21:36;25.50;99.90
2579;DHT22;1299;48.282;14.398;2023-07-29T06:24:03;26.10;99.90
2579;DHT22;1299;48.282;14.398;2023-07-29T06:26:30;24.60;99.90
2579;DHT22;1299;48.282;14.398;2023-07-29T06:28:57;24.20;99.90
2579;DHT22;1299;48.282;14.398;2023-07-29T06:31:26;24.30;99.90
2579;DHT22;1299;48.282;14.398;2023-07-29T06:33:52;24.70;99.90
2579;DHT22;1299;48.282;14.398;2023-07-29T06:36:20;24.50;99.90
2579;DHT22;1299;48.282;14.398;2023-07-29T06:38:47;24.30;99.90
2579;DHT22;1299;48.282;14.398;2023-07-29T06:41:14;24.50;99.90
2579;DHT22;1299;48.282;14.398;2023-07-29T06:43:42;24.30;99.90
2579;DHT22;1299;48.282;14.398;2023-07-29T06:46:09;24.50;99.90
2579;DHT22;1299;48.282;14.398;2023-07-29T06:48:37;24.00;99.90
2579;DHT22;1299;48.282;14.398;2023-07-29T06:51:04;24.00;99.90
2579;DHT22;1299;48.282;14.398;2023-07-29T06:53:31;24.20;99.90
2579;DHT22;1299;48.282;14.398;2023-07-29T06:55:58;24.50;99.90
2579;DHT22;1299;48.282;14.398;2023-07-29T06:58:25;24.60;99.90
2579;DHT22;1299;48.282;14.398;2023-07-29T07:00:52;24.40;99.90
2579;DHT22;1299;48.282;14.398;2023-07-29T07:03:19;24.10;99.90
2579;DHT22;1299;48.282;14.398;2023-07-29T07:05:47;24.50;99.90
2579;DHT22;1299;48.282;14.398;2023-07-29T07:08:14;24.40;99.90
2579;DHT22;1299;48.282;14.398;2023-07-29T07:10:41;24.30;99.90
2579;DHT22;1299;48.282;14.398;2023-07-29T07:13:08;24.40;99.90
2579;DHT22;1299;48.282;14.398;2023-07-29T07:15:35;24.70;99.90
2579;DHT22;1299;48.282;14.398;2023-07-29T07:18:02;24.90;99.90
2579;DHT22;1299;48.282;14.398;2023-07-29T07:20:29;25.10;99.90
2579;DHT22;1299;48.282;14.398;2023-07-29T07:22:58;25.30;99.90
2579;DHT22;1299;48.282;14.398;2023-07-29T07:25:25;25.00;99.90
2579;DHT22;1299;48.282;14.398;2023-07-29T07:27:52;25.10;99.90
2579;DHT22;1299;48.282;14.398;2023-07-29T07:30:19;25.10;99.90
2579;DHT22;1299;48.282;14.398;2023-07-29T07:32:46;25.00;99.90
2579;DHT22;1299;48.282;14.398;2023-07-29T07:35:13;25.60;99.90
2579;DHT22;1299;48.282;14.398;2023-07-29T07:37:40;25.70;99.90
2579;DHT22;1299;48.282;14.398;2023-07-29T07:40:09;25.30;99.90
2579;DHT22;1299;48.282;14.398;2023-07-29T07:42:36;25.20;99.90
2579;DHT22;1299;48.282;14.398;2023-07-29T07:45:04;25.40;99.90
2579;DHT22;1299;48.282;14.398;2023-07-29T07:47:31;25.70;99.90
2579;DHT22;1299;48.282;14.398;2023-07-29T07:49:58;25.90;99.90
2579;DHT22;1299;48.282;14.398;2023-07-29T07:52:25;25.90;99.90
2579;DHT22;1299;48.282;14.398;2023-07-29T07:54:52;25.80;99.90
2579;DHT22;1299;48.282;14.398;2023-07-29T07:57:21;25.60;99.90
2579;DHT22;1299;48.282;14.398;2023-07-29T07:59:48;25.50;99.90
2579;DHT22;1299;48.282;14.398;2023-07-29T08:02:16;25.40;99.90
2579;DHT22;1299;48.282;14.398;2023-07-29T08:04:43;25.70;99.90
2579;DHT22;1299;48.282;14.398;2023-07-29T08:07:10;25.90;99.90
2579;DHT22;1299;48.282;14.398;2023-07-29T08:09:37;25.80;99.90
2579;DHT22;1299;48.282;14.398;2023-07-29T08:12:04;25.90;99.90
2579;DHT22;1299;48.282;14.398;2023-07-29T08:14:33;25.90;99.90
2579;DHT22;1299;48.282;14.398;2023-07-29T08:17:00;26.30;99.90
2579;DHT22;1299;48.282;14.398;2023-07-29T08:19:27;26.60;99.90
2579;DHT22;1299;48.282;14.398;2023-07-29T08:21:54;26.80;99.90
2579;DHT22;1299;48.282;14.398;2023-07-29T08:24:21;26.60;99.90
2579;DHT22;1299;48.282;14.398;2023-07-29T08:26:48;26.40;99.90
2579;DHT22;1299;48.282;14.398;2023-07-29T08:29:15;26.30;99.90
2579;DHT22;1299;48.282;14.398;2023-07-29T08:31:43;26.50;99.90
2579;DHT22;1299;48.282;14.398;2023-07-29T08:34:10;26.50;99.90
2579;DHT22;1299;48.282;14.398;2023-07-29T08:36:37;26.50;99.90
2579;DHT22;1299;48.282;14.398;2023-07-29T08:39:04;26.70;99.90
2579;DHT22;1299;48.282;14.398;2023-07-29T08:41:35;26.70;99.90
2579;DHT22;1299;48.282;14.398;2023-07-29T08:44:09;27.00;99.90
2579;DHT22;1299;48.282;14.398;2023-07-29T08:46:36;26.60;99.90
2579;DHT22;1299;48.282;14.398;2023-07-29T08:49:05;26.50;99.90
2579;DHT22;1299;48.282;14.398;2023-07-29T08:51:32;27.00;99.90
2579;DHT22;1299;48.282;14.398;2023-07-29T08:54:00;27.30;99.90
2579;DHT22;1299;48.282;14.398;2023-07-29T08:56:28;27.30;99.90
2579;DHT22;1299;48.282;14.398;2023-07-29T08:58:56;26.80;99.90
2579;DHT22;1299;48.282;14.398;2023-07-29T09:01:23;26.70;99.90
2579;DHT22;1299;48.282;14.398;2023-07-29T09:03:50;27.20;99.90
2579;DHT22;1299;48.282;14.398;2023-07-29T09:06:19;27.30;99.90
2579;DHT22;1299;48.282;14.398;2023-07-29T09:08:49;27.20;99.90
2579;DHT22;1299;48.282;14.398;2023-07-29T09:11:17;27.80;99.90
2579;DHT22;1299;48.282;14.398;2023-07-29T09:13:44;27.80;99.90
2579;DHT22;1299;48.282;14.398;2023-07-29T09:16:12;28.00;99.90
2579;DHT22;1299;48.282;14.398;2023-07-29T09:18:39;27.90;99.90
2579;DHT22;1299;48.282;14.398;2023-07-29T09:21:06;28.10;99.90
2579;DHT22;1299;48.282;14.398;2023-07-29T09:23:40;27.60;99.90
2579;DHT22;1299;48.282;14.398;2023-07-29T09:26:08;27.60;99.90
2579;DHT22;1299;48.282;14.398;2023-07-29T09:28:36;27.80;99.90
2579;DHT22;1299;48.282;14.398;2023-07-29T09:31:03;27.10;99.90
2579;DHT22;1299;48.282;14.398;2023-07-29T09:33:32;27.40;99.90
2579;DHT22;1299;48.282;14.398;2023-07-29T09:36:01;27.80;99.90
2579;DHT22;1299;48.282;14.398;2023-07-29T09:38:28;27.80;99.90
2579;DHT22;1299;48.282;14.398;2023-07-29T09:40:58;27.50;99.90
2579;DHT22;1299;48.282;14.398;2023-07-29T09:43:30;27.80;99.90
2579;DHT22;1299;48.282;14.398;2023-07-29T09:46:00;28.00;99.90
2579;DHT22;1299;48.282;14.398;2023-07-29T09:48:27;28.00;99.90
2579;DHT22;1299;48.282;14.398;2023-07-29T09:50:55;28.30;99.90
2579;DHT22;1299;48.282;14.398;2023-07-29T09:53:22;28.20;99.90
2579;DHT22;1299;48.282;14.398;2023-07-29T09:55:49;28.50;99.90
2579;DHT22;1299;48.282;14.398;2023-07-29T09:58:26;28.40;99.90
2579;DHT22;1299;48.282;14.398;2023-07-29T10:00:53;28.50;99.90
2579;DHT22;1299;48.282;14.398;2023-07-29T10:03:21;28.60;99.90
2579;DHT22;1299;48.282;14.398;2023-07-29T10:05:49;28.50;99.90
2579;DHT22;1299;48.282;14.398;2023-07-29T10:08:18;28.20;99.90
2579;DHT22;1299;48.282;14.398;2023-07-29T10:10:45;28.20;99.90
2579;DHT22;1299;48.282;14.398;2023-07-29T10:13:12;28.10;99.90
2579;DHT22;1299;48.282;14.398;2023-07-29T10:15:41;28.00;99.90
2579;DHT22;1299;48.282;14.398;2023-07-29T10:18:08;27.90;99.90
2579;DHT22;1299;48.282;14.398;2023-07-29T10:20:35;27.80;99.90
2579;DHT22;1299;48.282;14.398;2023-07-29T10:23:05;27.50;99.90
2579;DHT22;1299;48.282;14.398;2023-07-29T10:25:38;26.70;99.90
2579;DHT22;1299;48.282;14.398;2023-07-29T10:28:08;26.30;99.90
2579;DHT22;1299;48.282;14.398;2023-07-29T10:30:36;26.10;99.90
2579;DHT22;1299;48.282;14.398;2023-07-29T10:33:05;26.20;99.90
2579;DHT22;1299;48.282;14.398;2023-07-29T10:35:33;26.40;99.90
2579;DHT22;1299;48.282;14.398;2023-07-29T10:38:00;26.30;99.90
2579;DHT22;1299;48.282;14.398;2023-07-29T10:40:43;26.10;99.90
2579;DHT22;1299;48.282;14.398;2023-07-29T10:43:12;25.90;99.90
2579;DHT22;1299;48.282;14.398;2023-07-29T10:45:40;26.00;99.90
2579;DHT22;1299;48.282;14.398;2023-07-29T10:48:12;26.00;99.90
2579;DHT22;1299;48.282;14.398;2023-07-29T10:50:39;26.00;99.90
2579;DHT22;1299;48.282;14.398;2023-07-29T10:53:06;26.00;99.90
2579;DHT22;1299;48.282;14.398;2023-07-29T10:55:35;26.10;99.90
2579;DHT22;1299;48.282;14.398;2023-07-29T10:58:07;26.30;99.90
2579;DHT22;1299;48.282;14.398;2023-07-29T11:00:35;26.30;99.90
2579;DHT22;1299;48.282;14.398;2023-07-29T11:03:03;26.20;99.90
2579;DHT22;1299;48.282;14.398;2023-07-29T11:05:47;26.30;99.90
2579;DHT22;1299;48.282;14.398;2023-07-29T11:08:21;26.40;99.90
2579;DHT22;1299;48.282;14.398;2023-07-29T11:11:03;26.60;99.90
2579;DHT22;1299;48.282;14.398;2023-07-29T11:13:32;26.70;99.90
2579;DHT22;1299;48.282;14.398;2023-07-29T11:16:00;26.70;99.90
2579;DHT22;1299;48.282;14.398;2023-07-29T11:18:28;26.50;99.90
2579;DHT22;1299;48.282;14.398;2023-07-29T11:20:57;26.40;99.90
2579;DHT22;1299;48.282;14.398;2023-07-29T11:23:29;26.30;99.90
2579;DHT22;1299;48.282;14.398;2023-07-29T11:25:57;26.30;99.90
2579;DHT22;1299;48.282;14.398;2023-07-29T11:28:24;26.40;99.90
2579;DHT22;1299;48.282;14.398;2023-07-29T11:30:52;26.70;99.90
2579;DHT22;1299;48.282;14.398;2023-07-29T11:33:20;26.60;99.90
2579;DHT22;1299;48.282;14.398;2023-07-29T11:35:47;26.50;99.90
2579;DHT22;1299;48.282;14.398;2023-07-29T11:38:17;26.60;99.90
2579;DHT22;1299;48.282;14.398;2023-07-29T11:40:54;26.80;99.90
2579;DHT22;1299;48.282;14.398;2023-07-29T11:43:22;26.60;99.90
2579;DHT22;1299;48.282;14.398;2023-07-29T11:45:49;26.60;99.90
2579;DHT22;1299;48.282;14.398;2023-07-29T11:48:15;26.80;99.90
2579;DHT22;1299;48.282;14.398;2023-07-29T11:50:43;27.30;99.90
2579;DHT22;1299;48.282;14.398;2023-07-29T11:53:11;27.00;99.90
2579;DHT22;1299;48.282;14.398;2023-07-29T11:55:39;26.50;99.90
2579;DHT22;1299;48.282;14.398;2023-07-29T11:58:07;26.30;99.90
2579;DHT22;1299;48.282;14.398;2023-07-29T12:00:34;26.60;99.90
2579;DHT22;1299;48.282;14.398;2023-07-29T12:03:01;26.80;99.90
2579;DHT22;1299;48.282;14.398;2023-07-29T12:05:28;27.20;99.90
2579;DHT22;1299;48.282;14.398;2023-07-29T12:07:56;27.30;99.90
2579;DHT22;1299;48.282;14.398;2023-07-29T12:10:23;27.40;99.90
2579;DHT22;1299;48.282;14.398;2023-07-29T12:12:52;27.50;99.90
2579;DHT22;1299;48.282;14.398;2023-07-29T12:15:26;27.40;99.90
2579;DHT22;1299;48.282;14.398;2023-07-29T12:17:54;27.40;99.90
2579;DHT22;1299;48.282;14.398;2023-07-29T12:20:23;27.40;99.90
2579;DHT22;1299;48.282;14.398;2023-07-29T12:22:54;27.60;99.90
2579;DHT22;1299;48.282;14.398;2023-07-29T12:25:21;27.80;99.90
2579;DHT22;1299;48.282;14.398;2023-07-29T12:27:49;28.00;99.90
2579;DHT22;1299;48.282;14.398;2023-07-29T12:30:20;27.50;99.90
2579;DHT22;1299;48.282;14.398;2023-07-29T12:32:47;27.70;99.90
2579;DHT22;1299;48.282;14.398;2023-07-29T12:35:14;27.80;99.90
2579;DHT22;1299;48.282;14.398;2023-07-29T12:37:41;27.50;99.90
2579;DHT22;1299;48.282;14.398;2023-07-29T12:40:22;27.70;99.90
2579;DHT22;1299;48.282;14.398;2023-07-29T12:42:49;27.80;99.90
2579;DHT22;1299;48.282;14.398;2023-07-29T12:45:18;28.30;99.90
2579;DHT22;1299;48.282;14.398;2023-07-29T12:47:48;28.30;99.90
2579;DHT22;1299;48.282;14.398;2023-07-29T12:50:15;28.30;99.90
2579;DHT22;1299;48.282;14.398;2023-07-29T12:52:42;28.40;99.90
2579;DHT22;1299;48.282;14.398;2023-07-29T12:55:09;28.70;99.90
2579;DHT22;1299;48.282;14.398;2023-07-29T12:57:39;28.70;99.90
2579;DHT22;1299;48.282;14.398;2023-07-29T13:00:08;28.40;99.90
2579;DHT22;1299;48.282;14.398;2023-07-29T13:02:37;28.20;99.90
2579;DHT22;1299;48.282;14.398;2023-07-29T13:05:04;28.10;99.90
2579;DHT22;1299;48.282;14.398;2023-07-29T13:07:32;28.00;99.90
2579;DHT22;1299;48.282;14.398;2023-07-29T13:09:59;27.80;99.90
2579;DHT22;1299;48.282;14.398;2023-07-29T13:12:26;27.90;99.90
2579;DHT22;1299;48.282;14.398;2023-07-29T13:14:53;27.70;99.90
2579;DHT22;1299;48.282;14.398;2023-07-29T13:17:21;27.40;99.90
2579;DHT22;1299;48.282;14.398;2023-07-29T13:19:50;27.80;99.90
2579;DHT22;1299;48.282;14.398;2023-07-29T13:22:17;27.80;99.90
2579;DHT22;1299;48.282;14.398;2023-07-29T13:24:44;27.40;99.90
2579;DHT22;1299;48.282;14.398;2023-07-29T13:27:11;27.10;99.90
2579;DHT22;1299;48.282;14.398;2023-07-29T13:29:38;27.30;99.90
2579;DHT22;1299;48.282;14.398;2023-07-29T13:32:06;27.30;99.90
2579;DHT22;1299;48.282;14.398;2023-07-29T13:34:34;27.50;99.90
2579;DHT22;1299;48.282;14.398;2023-07-29T13:37:02;27.80;99.90
2579;DHT22;1299;48.282;14.398;2023-07-29T13:39:29;27.70;99.90
2579;DHT22;1299;48.282;14.398;2023-07-29T13:41:56;27.80;99.90
2579;DHT22;1299;48.282;14.398;2023-07-29T13:44:23;27.70;99.90
2579;DHT22;1299;48.282;14.398;2023-07-29T13:46:50;27.50;99.90
2579;DHT22;1299;48.282;14.398;2023-07-29T13:49:17;27.50;99.90
2579;DHT22;1299;48.282;14.398;2023-07-29T13:51:44;27.50;99.90
2579;DHT22;1299;48.282;14.398;2023-07-29T13:54:12;27.40;99.90
2579;DHT22;1299;48.282;14.398;2023-07-29T13:56:39;27.30;99.90
2579;DHT22;1299;48.282;14.398;2023-07-29T13:59:06;27.30;99.90
2579;DHT22;1299;48.282;14.398;2023-07-29T14:01:33;27.20;99.90
2579;DHT22;1299;48.282;14.398;2023-07-29T14:04:00;25.60;99.90
2579;DHT22;1299;48.282;14.398;2023-07-29T14:06:27;25.20;99.90
2579;DHT22;1299;48.282;14.398;2023-07-29T14:08:55;24.80;99.90
2579;DHT22;1299;48.282;14.398;2023-07-29T14:11:23;24.40;99.90
2579;DHT22;1299;48.282;14.398;2023-07-29T14:13:51;23.90;99.90
2579;DHT22;1299;48.282;14.398;2023-07-29T14:16:18;23.90;99.90
2579;DHT22;1299;48.282;14.398;2023-07-29T14:18:45;23.50;99.90
2579;DHT22;1299;48.282;14.398;2023-07-29T14:21:11;23.10;99.90
2579;DHT22;1299;48.282;14.398;2023-07-29T14:23:38;23.10;99.90
2579;DHT22;1299;48.282;14.398;2023-07-29T14:26:05;22.90;99.90
2579;DHT22;1299;48.282;14.398;2023-07-29T14:28:37;22.90;99.90
2579;DHT22;1299;48.282;14.398;2023-07-29T14:31:03;23.40;99.90
2579;DHT22;1299;48.282;14.398;2023-07-29T14:33:30;23.10;99.90
2579;DHT22;1299;48.282;14.398;2023-07-29T14:35:57;23.50;99.90
2579;DHT22;1299;48.282;14.398;2023-07-29T14:38:24;23.80;99.90
2579;DHT22;1299;48.282;14.398;2023-07-29T14:40:52;23.90;99.90
2579;DHT22;1299;48.282;14.398;2023-07-29T14:43:21;24.00;99.90
2579;DHT22;1299;48.282;14.398;2023-07-29T14:45:49;23.90;99.90
2579;DHT22;1299;48.282;14.398;2023-07-29T14:48:16;24.10;99.90
2579;DHT22;1299;48.282;14.398;2023-07-29T14:50:43;24.20;99.90
2579;DHT22;1299;48.282;14.398;2023-07-29T14:53:10;24.00;99.90
2579;DHT22;1299;48.282;14.398;2023-07-29T14:55:37;24.00;99.90
2579;DHT22;1299;48.282;14.398;2023-07-29T14:58:04;24.20;99.90
2579;DHT22;1299;48.282;14.398;2023-07-29T15:00:31;24.20;99.90
2579;DHT22;1299;48.282;14.398;2023-07-29T15:03:00;24.30;99.90
2579;DHT22;1299;48.282;14.398;2023-07-29T15:05:27;24.10;99.90
2579;DHT22;1299;48.282;14.398;2023-07-29T15:07:54;24.10;99.90
2579;DHT22;1299;48.282;14.398;2023-07-29T15:10:21;24.10;99.90
2579;DHT22;1299;48.282;14.398;2023-07-29T15:12:48;24.10;99.90
2579;DHT22;1299;48.282;14.398;2023-07-29T15:15:15;24.30;99.90
2579;DHT22;1299;48.282;14.398;2023-07-29T15:17:42;24.70;99.90
2579;DHT22;1299;48.282;14.398;2023-07-29T15:20:11;24.40;99.90
2579;DHT22;1299;48.282;14.398;2023-07-29T15:22:38;24.20;99.90
2579;DHT22;1299;48.282;14.398;2023-07-29T15:25:07;24.30;99.90
2579;DHT22;1299;48.282;14.398;2023-07-29T15:27:35;24.20;99.90
2579;DHT22;1299;48.282;14.398;2023-07-29T15:30:02;24.40;99.90
2579;DHT22;1299;48.282;14.398;2023-07-29T15:32:29;24.40;99.90
2579;DHT22;1299;48.282;14.398;2023-07-29T15:34:56;24.30;99.90
2579;DHT22;1299;48.282;14.398;2023-07-29T15:37:25;24.30;99.90
2579;DHT22;1299;48.282;14.398;2023-07-29T15:39:52;24.40;99.90
2579;DHT22;1299;48.282;14.398;2023-07-29T15:42:19;24.50;99.90
2579;DHT22;1299;48.282;14.398;2023-07-29T15:44:46;24.50;99.90
2579;DHT22;1299;48.282;14.398;2023-07-29T15:47:13;24.50;99.90
2579;DHT22;1299;48.282;14.398;2023-07-29T15:49:44;24.30;99.90